Time;durP1;ratioP1;P1;durP2;ratioP2;P2;SDS_P1;SDS_P2;PMS_P1;PMS_P2;Temp;Humidity;BMP_temperature;BMP_pressure;BME280_temperature;BME280_humidity;BME280_pressure;Samples;Min_cycle;Max_cycle;Signal;HPM_P1;HPM_P2
2021/04/04 00:01:10;;;;;;;5.97;3.53;;;3.30;99.90;;;;;;5048069;28;20214;-79
2021/04/04 00:03:36;;;;;;;4.32;3.92;;;3.70;99.90;;;;;;5045556;28;20224;-79
2021/04/04 00:06:02;;;;;;;6.47;3.90;;;3.60;99.90;;;;;;5045378;28;20215;-79
2021/04/04 00:08:30;;;;;;;9.70;4.32;;;3.60;99.90;;;;;;5045310;28;20214;-79
2021/04/04 00:10:57;;;;;;;6.97;5.18;;;3.60;99.90;;;;;;5043321;28;20184;-79
2021/04/04 00:13:23;;;;;;;5.50;4.10;;;3.70;99.90;;;;;;5041733;28;20227;-80
2021/04/04 00:15:49;;;;;;;3.70;3.25;;;3.30;99.90;;;;;;5039877;28;20220;-80
2021/04/04 00:18:15;;;;;;;6.20;4.20;;;3.30;99.90;;;;;;5037994;28;20208;-80
2021/04/04 00:20:41;;;;;;;10.13;5.80;;;3.20;99.90;;;;;;5037889;28;20204;-79
2021/04/04 00:23:07;;;;;;;8.10;5.65;;;3.60;99.90;;;;;;5037014;28;20231;-79
2021/04/04 00:25:33;;;;;;;6.78;6.00;;;3.40;99.90;;;;;;5037878;28;20204;-79
2021/04/04 00:28:00;;;;;;;6.80;5.60;;;3.70;99.90;;;;;;5039552;28;20250;-79
2021/04/04 00:30:27;;;;;;;5.70;5.18;;;3.60;99.90;;;;;;5039659;28;20395;-80
2021/04/04 00:32:53;;;;;;;9.10;5.68;;;3.30;99.90;;;;;;5038345;28;20728;-79
2021/04/04 00:35:21;;;;;;;11.75;6.00;;;3.60;99.90;;;;;;5038317;28;20700;-79
2021/04/04 00:37:49;;;;;;;7.10;4.20;;;3.60;99.90;;;;;;5038842;28;20215;-80
2021/04/04 00:40:18;;;;;;;5.15;4.47;;;3.00;99.90;;;;;;5038453;28;20285;-80
2021/04/04 00:42:44;;;;;;;4.53;4.13;;;3.40;99.90;;;;;;5038578;28;20259;-79
2021/04/04 00:45:15;;;;;;;5.80;4.78;;;3.40;99.90;;;;;;5038383;28;20207;-80
2021/04/04 00:47:41;;;;;;;9.05;5.90;;;3.30;99.90;;;;;;5037674;28;20214;-80
2021/04/04 00:50:09;;;;;;;10.27;6.10;;;3.10;99.90;;;;;;5036157;28;20238;-80
2021/04/04 00:52:36;;;;;;;7.75;5.78;;;3.10;99.90;;;;;;5037152;28;20204;-80
2021/04/04 00:55:04;;;;;;;6.18;5.10;;;3.30;99.90;;;;;;5071018;23;20235;-86
2021/04/04 00:57:30;;;;;;;6.85;4.95;;;3.30;99.90;;;;;;5060802;28;20253;-85
2021/04/04 00:59:56;;;;;;;9.68;6.00;;;3.00;99.90;;;;;;5059939;28;20194;-85
2021/04/04 01:02:23;;;;;;;10.60;6.40;;;3.20;99.90;;;;;;5060241;28;20207;-85
2021/04/04 01:04:51;;;;;;;10.55;6.00;;;2.90;99.90;;;;;;5064130;28;20261;-85
2021/04/04 01:07:17;;;;;;;5.25;4.75;;;3.30;99.90;;;;;;5063929;28;20297;-86
2021/04/04 01:09:43;;;;;;;8.18;6.15;;;3.60;99.90;;;;;;5063960;28;20218;-86
2021/04/04 01:12:14;;;;;;;6.68;5.85;;;3.20;99.90;;;;;;5060720;28;20245;-86
2021/04/04 01:14:48;;;;;;;10.05;7.18;;;3.40;99.90;;;;;;5060294;28;20234;-85
2021/04/04 01:17:18;;;;;;;7.68;6.93;;;3.40;99.90;;;;;;5062717;28;20660;-84
2021/04/04 01:20:03;;;;;;;7.57;6.88;;;3.30;99.90;;;;;;5064202;28;20210;-85
2021/04/04 01:22:50;;;;;;;6.50;5.90;;;3.10;99.90;;;;;;5069949;28;20211;-85
2021/04/04 01:25:22;;;;;;;9.10;6.70;;;3.40;99.90;;;;;;5076850;28;20207;-86
2021/04/04 01:27:53;;;;;;;8.27;7.20;;;3.30;99.90;;;;;;5061043;28;20581;-85
2021/04/04 01:30:21;;;;;;;10.45;6.35;;;3.10;99.90;;;;;;5060455;28;20210;-85
2021/04/04 01:32:49;;;;;;;8.85;6.45;;;3.20;99.90;;;;;;5059604;28;20199;-85
2021/04/04 01:35:18;;;;;;;12.27;6.63;;;3.20;99.90;;;;;;5059945;28;20238;-85
2021/04/04 01:37:47;;;;;;;8.48;6.88;;;3.30;99.90;;;;;;5060061;28;20226;-84
2021/04/04 01:40:15;;;;;;;8.88;6.05;;;3.50;99.90;;;;;;5058083;28;20668;-84
2021/04/04 01:42:43;;;;;;;9.38;6.25;;;3.40;99.90;;;;;;5056193;28;20210;-84
2021/04/04 01:45:11;;;;;;;7.57;6.38;;;3.50;99.90;;;;;;5057096;28;20593;-84
2021/04/04 01:47:41;;;;;;;7.65;6.85;;;3.50;99.90;;;;;;5057470;28;20210;-85
2021/04/04 01:50:08;;;;;;;7.78;6.57;;;3.20;99.90;;;;;;5057716;28;20230;-85
2021/04/04 01:52:36;;;;;;;9.15;7.20;;;3.30;99.90;;;;;;5057848;28;20700;-85
2021/04/04 01:55:04;;;;;;;8.65;6.70;;;3.10;99.90;;;;;;5057377;28;20234;-85
2021/04/04 01:57:31;;;;;;;6.97;6.05;;;3.40;99.90;;;;;;5058034;28;20202;-85
2021/04/04 01:59:57;;;;;;;7.20;6.45;;;3.30;99.90;;;;;;5059593;28;20202;-85
2021/04/04 02:02:24;;;;;;;8.75;6.32;;;2.70;99.90;;;;;;5061618;28;20203;-85
2021/04/04 02:04:51;;;;;;;8.43;6.85;;;2.70;99.90;;;;;;5060900;28;20227;-85
2021/04/04 02:07:18;;;;;;;8.13;7.40;;;2.80;99.90;;;;;;5060938;28;20230;-85
2021/04/04 02:09:46;;;;;;;10.48;7.10;;;2.50;99.90;;;;;;5061004;28;20215;-85
2021/04/04 02:12:13;;;;;;;9.02;6.43;;;3.00;99.90;;;;;;5060953;28;20211;-85
2021/04/04 02:14:41;;;;;;;7.25;6.35;;;2.70;99.90;;;;;;5061154;28;20219;-84
2021/04/04 02:17:08;;;;;;;7.30;5.70;;;2.30;99.90;;;;;;5061338;28;20230;-85
2021/04/04 02:19:35;;;;;;;8.00;5.35;;;2.80;99.90;;;;;;5060940;28;20203;-85
2021/04/04 02:22:02;;;;;;;6.97;5.40;;;2.10;99.90;;;;;;5060964;28;20198;-85
2021/04/04 02:24:30;;;;;;;8.80;6.53;;;2.90;99.90;;;;;;5061255;28;20231;-84
2021/04/04 02:26:56;;;;;;;9.23;6.03;;;2.70;99.90;;;;;;5069154;28;20187;-83
2021/04/04 02:29:23;;;;;;;6.65;6.03;;;2.40;99.90;;;;;;5079443;28;20230;-84
2021/04/04 02:31:53;;;;;;;10.02;6.50;;;2.30;99.90;;;;;;5079379;28;20203;-83
2021/04/04 02:34:21;;;;;;;6.05;5.45;;;2.20;99.90;;;;;;5076324;28;20233;-85
2021/04/04 02:36:49;;;;;;;7.43;5.82;;;2.00;99.90;;;;;;5077299;28;20190;-83
2021/04/04 02:39:19;;;;;;;6.57;5.60;;;3.00;99.90;;;;;;5077548;28;20200;-83
2021/04/04 02:41:46;;;;;;;5.57;5.00;;;2.70;99.90;;;;;;5076463;28;20210;-84
2021/04/04 02:44:13;;;;;;;8.40;6.00;;;2.40;99.90;;;;;;5075937;28;20227;-84
2021/04/04 02:46:46;;;;;;;7.10;5.85;;;2.40;99.90;;;;;;5075923;28;20210;-84
2021/04/04 02:49:14;;;;;;;5.93;5.30;;;1.90;99.90;;;;;;5074755;28;20207;-85
2021/04/04 02:51:42;;;;;;;8.13;6.15;;;2.30;99.90;;;;;;5074698;28;20221;-85
2021/04/04 02:54:10;;;;;;;7.20;6.30;;;2.20;99.90;;;;;;5077848;28;20226;-84
2021/04/04 02:56:40;;;;;;;8.10;6.03;;;2.90;99.90;;;;;;5076289;28;20233;-84
2021/04/04 02:59:14;;;;;;;8.35;6.30;;;2.60;99.90;;;;;;5080489;28;20209;-84
2021/04/04 03:01:42;;;;;;;9.07;6.38;;;2.10;99.90;;;;;;5075238;28;20189;-85
2021/04/04 03:04:10;;;;;;;8.75;6.90;;;2.50;99.90;;;;;;5068056;28;20226;-85
2021/04/04 03:06:40;;;;;;;8.07;7.20;;;2.00;99.90;;;;;;5061861;28;20230;-85
2021/04/04 03:09:09;;;;;;;6.80;6.15;;;2.40;99.90;;;;;;5061246;28;20211;-85
2021/04/04 03:11:37;;;;;;;8.52;6.05;;;4.40;99.90;;;;;;5074435;28;20187;-83
2021/04/04 03:14:04;;;;;;;8.63;6.50;;;2.70;99.90;;;;;;5078700;28;20203;-83
2021/04/04 03:16:32;;;;;;;7.25;6.18;;;2.70;99.90;;;;;;5078579;28;20229;-83
2021/04/04 03:19:00;;;;;;;13.30;7.20;;;2.50;99.90;;;;;;5077242;28;20203;-84
2021/04/04 03:21:28;;;;;;;6.38;5.68;;;2.10;99.90;;;;;;5071502;28;20214;-85
2021/04/04 03:23:55;;;;;;;9.73;6.18;;;2.70;99.90;;;;;;5063691;28;20227;-85
2021/04/04 03:26:24;;;;;;;7.60;5.70;;;2.50;99.90;;;;;;5067366;28;20293;-85
2021/04/04 03:28:51;;;;;;;6.45;5.80;;;1.70;99.90;;;;;;5067264;28;20203;-85
2021/04/04 03:31:18;;;;;;;7.70;5.47;;;2.30;99.90;;;;;;5074211;28;20226;-85
2021/04/04 03:33:45;;;;;;;6.10;5.50;;;2.60;99.90;;;;;;5068726;28;20726;-85
2021/04/04 03:36:13;;;;;;;7.28;6.00;;;2.30;99.90;;;;;;5059535;28;20207;-83
2021/04/04 03:38:40;;;;;;;7.35;6.20;;;1.80;99.90;;;;;;5060654;28;20203;-84
2021/04/04 03:41:07;;;;;;;11.32;6.30;;;2.40;99.90;;;;;;5060001;28;20199;-84
2021/04/04 03:43:35;;;;;;;6.70;5.95;;;2.40;99.90;;;;;;5060332;28;20269;-84
2021/04/04 03:46:03;;;;;;;8.80;5.50;;;2.10;99.90;;;;;;5060287;28;20203;-85
2021/04/04 03:48:34;;;;;;;6.93;6.05;;;2.50;99.90;;;;;;5061756;28;20203;-84
2021/04/04 03:51:03;;;;;;;8.00;6.28;;;2.30;99.90;;;;;;5073486;28;20211;-85
2021/04/04 03:53:36;;;;;;;9.15;6.05;;;2.70;99.90;;;;;;5066099;28;20294;-84
2021/04/04 03:56:04;;;;;;;9.05;6.25;;;1.80;99.90;;;;;;5059863;28;20440;-85
2021/04/04 03:58:37;;;;;;;6.85;6.15;;;2.60;99.90;;;;;;5059341;28;20214;-85
2021/04/04 04:01:06;;;;;;;7.32;6.38;;;2.20;99.90;;;;;;5059157;28;20309;-85
2021/04/04 04:03:34;;;;;;;7.15;6.43;;;2.20;99.90;;;;;;5058606;28;20238;-86
2021/04/04 04:06:01;;;;;;;6.57;6.00;;;1.90;99.90;;;;;;5058638;28;20203;-85
2021/04/04 04:08:27;;;;;;;9.60;6.85;;;2.20;99.90;;;;;;5059055;28;20237;-85
2021/04/04 04:10:54;;;;;;;7.22;5.97;;;2.00;99.90;;;;;;5059279;28;20222;-85
2021/04/04 04:13:21;;;;;;;6.15;5.55;;;2.40;99.90;;;;;;5059353;28;20223;-85
2021/04/04 04:15:51;;;;;;;5.93;5.40;;;2.00;99.90;;;;;;5077399;28;20183;-83
2021/04/04 04:18:18;;;;;;;7.85;6.22;;;2.20;99.90;;;;;;5077070;28;20209;-85
2021/04/04 04:20:47;;;;;;;5.70;5.00;;;2.30;99.90;;;;;;5076875;28;20199;-85
2021/04/04 04:23:21;;;;;;;9.07;5.93;;;1.90;99.90;;;;;;5060444;28;20230;-85
2021/04/04 04:25:47;;;;;;;9.10;5.65;;;;;;;;;;5060029;28;20191;-86
2021/04/04 04:28:15;;;;;;;8.05;5.15;;;2.40;99.90;;;;;;5059773;28;20199;-85
2021/04/04 04:30:43;;;;;;;7.80;5.60;;;2.70;99.90;;;;;;5070391;28;20223;-84
2021/04/04 04:33:14;;;;;;;7.90;4.75;;;2.40;99.90;;;;;;5075604;28;20203;-83
2021/04/04 04:35:42;;;;;;;6.93;5.82;;;2.30;99.90;;;;;;5075002;28;20198;-85
2021/04/04 04:38:09;;;;;;;5.78;5.18;;;2.30;99.90;;;;;;5070301;28;20202;-85
2021/04/04 04:40:36;;;;;;;7.43;6.70;;;2.00;99.90;;;;;;5069840;28;20205;-85
2021/04/04 04:43:06;;;;;;;6.25;4.90;;;2.30;99.90;;;;;;5069457;28;20209;-85
2021/04/04 04:45:36;;;;;;;6.22;5.53;;;2.50;99.90;;;;;;5070444;28;20203;-85
2021/04/04 04:48:03;;;;;;;6.20;5.53;;;2.30;99.90;;;;;;5069670;28;20556;-84
2021/04/04 04:50:30;;;;;;;6.20;4.90;;;2.20;99.90;;;;;;5071073;28;20219;-85
2021/04/04 04:52:58;;;;;;;6.20;4.70;;;2.20;99.90;;;;;;5066771;28;20471;-85
2021/04/04 04:55:25;;;;;;;5.45;4.68;;;2.40;99.90;;;;;;5060427;28;20264;-86
2021/04/04 04:57:53;;;;;;;6.97;5.00;;;2.40;99.90;;;;;;5060408;28;20572;-85
2021/04/04 05:00:22;;;;;;;5.47;5.00;;;3.00;99.90;;;;;;5059861;28;20202;-85
2021/04/04 05:02:48;;;;;;;6.15;4.95;;;2.40;99.90;;;;;;5059802;28;20439;-85
2021/04/04 05:05:16;;;;;;;6.60;5.32;;;2.30;99.90;;;;;;5067428;28;20218;-85
2021/04/04 05:07:45;;;;;;;7.28;5.85;;;2.70;99.90;;;;;;5073693;28;20226;-85
2021/04/04 05:10:13;;;;;;;9.37;5.37;;;2.70;99.90;;;;;;5059985;28;20495;-85
2021/04/04 05:12:45;;;;;;;8.38;5.70;;;2.40;99.90;;;;;;5059928;28;20453;-85
2021/04/04 05:15:16;;;;;;;7.32;5.13;;;1.70;99.90;;;;;;5065433;28;20225;-85
2021/04/04 05:17:43;;;;;;;5.15;4.65;;;2.40;99.90;;;;;;5073944;28;20206;-84
2021/04/04 05:20:11;;;;;;;5.30;4.70;;;2.60;99.90;;;;;;5071922;28;20199;-85
2021/04/04 05:22:38;;;;;;;5.90;5.25;;;2.60;99.90;;;;;;5062885;28;20203;-85
2021/04/04 05:25:07;;;;;;;5.55;5.03;;;2.60;99.90;;;;;;5059467;28;20652;-85
2021/04/04 05:27:33;;;;;;;6.88;5.95;;;2.70;99.90;;;;;;5059239;28;20199;-85
2021/04/04 05:30:00;;;;;;;6.47;5.70;;;2.80;99.90;;;;;;5058564;28;20646;-85
2021/04/04 05:32:26;;;;;;;8.82;5.65;;;2.80;99.90;;;;;;5059233;28;20230;-85
2021/04/04 05:34:52;;;;;;;7.43;5.53;;;3.00;99.90;;;;;;5059219;28;20227;-85
2021/04/04 05:37:18;;;;;;;8.13;5.80;;;2.90;99.90;;;;;;5062246;28;20211;-85
2021/04/04 05:39:44;;;;;;;6.53;5.88;;;2.70;99.90;;;;;;5045185;28;20195;-85
2021/04/04 05:42:14;;;;;;;6.90;6.10;;;2.30;99.90;;;;;;5064147;28;20662;-85
2021/04/04 05:44:44;;;;;;;5.90;4.90;;;1.90;99.90;;;;;;5064908;28;20851;-85
2021/04/04 05:47:16;;;;;;;7.45;6.40;;;3.10;99.90;;;;;;5068533;28;20653;-83
2021/04/04 05:49:54;;;;;;;6.30;4.85;;;2.40;99.90;;;;;;5061086;28;20776;-84
2021/04/04 05:52:28;;;;;;;6.75;4.70;;;2.70;99.90;;;;;;5062216;28;20220;-84
2021/04/04 05:55:13;;;;;;;6.20;5.18;;;3.00;99.90;;;;;;5063463;28;20317;-85
2021/04/04 05:57:46;;;;;;;12.15;6.30;;;3.10;99.90;;;;;;5068851;28;20446;-85
2021/04/04 06:00:15;;;;;;;6.05;5.20;;;2.60;99.90;;;;;;5065804;28;20964;-85
2021/04/04 06:02:55;;;;;;;6.57;4.90;;;3.40;99.90;;;;;;5064049;28;20466;-84
2021/04/04 06:05:40;;;;;;;7.32;4.90;;;2.70;99.90;;;;;;5069928;28;20187;-84
2021/04/04 06:08:28;;;;;;;9.40;5.55;;;3.10;99.90;;;;;;5068514;28;20191;-82
2021/04/04 06:11:04;;;;;;;10.02;5.18;;;3.30;99.90;;;;;;5076683;28;20203;-86
2021/04/04 06:13:46;;;;;;;6.28;5.20;;;3.90;99.90;;;;;;5071485;28;20226;-84
2021/04/04 06:16:20;;;;;;;8.73;4.88;;;4.40;99.90;;;;;;5069233;28;20211;-85
2021/04/04 06:18:55;;;;;;;6.93;4.47;;;3.70;99.90;;;;;;5068757;28;20202;-86
2021/04/04 06:21:32;;;;;;;8.20;4.28;;;3.60;99.90;;;;;;5067101;28;20587;-85
2021/04/04 06:24:06;;;;;;;4.68;4.28;;;4.00;99.90;;;;;;5068336;28;20218;-83
2021/04/04 06:26:44;;;;;;;4.72;4.32;;;4.00;99.90;;;;;;5066988;28;20209;-88
2021/04/04 06:29:22;;;;;;;5.40;3.70;;;4.00;99.90;;;;;;5071486;28;20188;-86
2021/04/04 06:31:54;;;;;;;7.68;4.50;;;4.20;99.90;;;;;;5077496;28;20191;-86
2021/04/04 06:34:25;;;;;;;4.93;3.80;;;4.10;99.90;;;;;;5066568;28;20276;-88
2021/04/04 06:37:04;;;;;;;4.35;4.00;;;4.40;99.90;;;;;;5068721;28;20222;-86
2021/04/04 06:39:59;;;;;;;3.85;2.90;;;4.60;99.90;;;;;;5066783;28;20559;-87
2021/04/04 06:42:43;;;;;;;3.90;3.50;;;2.90;99.90;;;;;;5065763;28;20192;-87
2021/04/04 06:45:22;;;;;;;3.50;3.08;;;4.50;99.90;;;;;;5065152;28;20230;-83
2021/04/04 06:48:05;;;;;;;5.32;4.40;;;4.60;99.90;;;;;;5065843;28;20187;-84
2021/04/04 06:50:37;;;;;;;3.83;3.40;;;4.90;99.90;;;;;;5066869;28;20563;-83
2021/04/04 06:53:18;;;;;;;3.65;3.10;;;4.80;99.90;;;;;;5066345;28;20295;-83
2021/04/04 06:55:54;;;;;;;4.60;4.07;;;4.70;99.90;;;;;;5091079;22;20230;-83
2021/04/04 06:58:32;;;;;;;3.58;3.30;;;4.30;99.90;;;;;;5065981;28;20217;-82
2021/04/04 07:01:10;;;;;;;7.35;3.70;;;4.40;99.90;;;;;;5066638;28;20190;-83
2021/04/04 07:03:45;;;;;;;3.85;3.13;;;5.00;99.90;;;;;;5064205;28;20485;-82
2021/04/04 07:06:56;;;;;;;6.40;3.58;;;4.60;99.90;;;;;;5043121;28;20191;-82
2021/04/04 07:09:49;;;;;;;4.60;3.50;;;5.00;99.90;;;;;;5046065;28;20192;-81
2021/04/04 07:12:30;;;;;;;4.25;3.80;;;5.10;99.90;;;;;;5053111;28;20208;-82
2021/04/04 07:15:14;;;;;;;5.28;4.05;;;5.30;99.90;;;;;;5054937;28;20223;-81
2021/04/04 07:18:15;;;;;;;4.68;3.38;;;5.30;99.90;;;;;;5055398;28;20180;-81
2021/04/04 07:20:50;;;;;;;7.32;4.30;;;5.40;99.90;;;;;;5056081;28;20184;-81
2021/04/04 07:23:38;;;;;;;4.88;3.70;;;5.30;99.90;;;;;;5055474;28;20195;-81
2021/04/04 07:26:18;;;;;;;5.78;4.43;;;5.60;99.90;;;;;;5055813;28;20208;-81
2021/04/04 07:29:09;;;;;;;4.32;3.28;;;5.30;99.90;;;;;;5054517;28;20194;-81
2021/04/04 07:31:42;;;;;;;4.50;3.25;;;5.90;99.90;;;;;;5046348;28;20637;-81
2021/04/04 07:34:15;;;;;;;3.85;3.47;;;5.60;99.90;;;;;;5049203;28;20236;-83
2021/04/04 07:36:50;;;;;;;3.55;2.60;;;6.70;99.90;;;;;;5053729;28;20242;-82
2021/04/04 07:39:25;;;;;;;3.95;3.38;;;5.80;99.90;;;;;;5055532;28;20183;-82
2021/04/04 07:41:56;;;;;;;3.95;3.30;;;5.90;99.90;;;;;;5050244;28;20191;-82
2021/04/04 07:44:27;;;;;;;4.78;3.38;;;5.80;99.90;;;;;;5052498;28;20231;-82
2021/04/04 07:47:11;;;;;;;5.53;2.92;;;6.10;99.90;;;;;;5052802;28;20218;-81
2021/04/04 07:49:41;;;;;;;4.95;3.53;;;6.10;99.90;;;;;;5051492;28;20212;-82
2021/04/04 07:52:20;;;;;;;3.15;2.47;;;5.80;99.90;;;;;;5050828;28;20215;-81
2021/04/04 07:54:55;;;;;;;3.50;2.92;;;6.20;99.90;;;;;;5049460;28;20246;-81
2021/04/04 07:57:28;;;;;;;11.57;5.60;;;5.80;99.90;;;;;;5048842;28;20187;-82
2021/04/04 08:00:02;;;;;;;6.35;3.83;;;6.10;99.90;;;;;;5048139;28;20187;-82
2021/04/04 08:02:33;;;;;;;7.90;2.40;;;6.40;99.90;;;;;;5047565;28;20223;-82
2021/04/04 08:05:07;;;;;;;5.55;2.88;;;6.60;99.90;;;;;;5050085;28;20224;-81
2021/04/04 08:07:41;;;;;;;2.95;2.65;;;6.60;99.90;;;;;;5050194;28;20203;-82
2021/04/04 08:10:11;;;;;;;7.43;3.50;;;6.40;99.90;;;;;;5052089;28;20257;-82
2021/04/04 08:12:47;;;;;;;2.88;2.67;;;6.60;99.90;;;;;;5052793;28;20203;-82
2021/04/04 08:15:18;;;;;;;6.07;3.83;;;7.10;99.90;;;;;;5048553;28;20234;-81
2021/04/04 08:17:44;;;;;;;7.07;3.95;;;6.20;99.90;;;;;;5052532;28;20202;-82
2021/04/04 08:20:17;;;;;;;8.45;4.40;;;6.60;99.90;;;;;;5055238;28;20188;-82
2021/04/04 08:22:49;;;;;;;4.50;3.60;;;6.70;99.90;;;;;;5053172;28;20188;-81
2021/04/04 08:25:19;;;;;;;6.80;3.80;;;6.80;99.90;;;;;;5053013;28;20232;-81
2021/04/04 08:27:55;;;;;;;5.25;3.70;;;6.40;99.90;;;;;;5055071;28;20643;-81
2021/04/04 08:30:28;;;;;;;4.80;3.30;;;6.40;99.90;;;;;;5056146;28;20203;-82
2021/04/04 08:32:56;;;;;;;6.57;3.75;;;6.40;99.90;;;;;;5053153;28;20204;-82
2021/04/04 08:35:26;;;;;;;6.57;4.00;;;6.80;99.90;;;;;;5050316;28;20224;-82
2021/04/04 08:37:55;;;;;;;8.65;3.53;;;6.90;99.90;;;;;;5051663;28;20206;-82
2021/04/04 08:40:22;;;;;;;5.60;3.97;;;6.60;99.90;;;;;;5049131;28;20204;-81
2021/04/04 08:42:50;;;;;;;6.90;4.30;;;6.90;99.90;;;;;;5046790;28;20225;-82
2021/04/04 08:45:21;;;;;;;9.13;4.35;;;7.40;99.90;;;;;;5045154;28;20227;-82
2021/04/04 08:47:50;;;;;;;8.00;3.92;;;7.00;99.90;;;;;;5042673;28;20195;-82
2021/04/04 08:50:19;;;;;;;9.45;5.60;;;7.30;99.90;;;;;;5042137;28;20227;-82
2021/04/04 08:52:49;;;;;;;7.07;4.60;;;7.30;99.90;;;;;;5044847;28;20277;-84
2021/04/04 08:55:22;;;;;;;9.18;6.28;;;7.30;99.90;;;;;;5045978;28;20231;-82
2021/04/04 08:57:50;;;;;;;10.77;5.15;;;7.00;99.90;;;;;;5046718;28;20285;-82
2021/04/04 09:00:18;;;;;;;7.97;4.85;;;6.50;99.90;;;;;;5047849;28;20214;-82
2021/04/04 09:02:48;;;;;;;8.30;5.47;;;7.50;99.90;;;;;;5053349;28;20203;-82
2021/04/04 09:05:15;;;;;;;12.00;6.05;;;7.90;99.90;;;;;;5049500;28;20274;-82
2021/04/04 09:07:43;;;;;;;7.72;5.47;;;7.50;99.90;;;;;;5049853;28;20214;-82
2021/04/04 09:10:14;;;;;;;13.73;5.40;;;7.90;99.90;;;;;;5047904;28;20219;-82
2021/04/04 09:12:41;;;;;;;13.52;6.25;;;7.40;99.90;;;;;;5047929;28;20199;-83
2021/04/04 09:15:09;;;;;;;12.02;6.22;;;7.30;99.90;;;;;;5045429;28;20293;-83
2021/04/04 09:17:36;;;;;;;9.90;5.20;;;7.80;99.90;;;;;;5044795;28;20229;-83
2021/04/04 09:20:05;;;;;;;11.00;5.35;;;7.10;99.90;;;;;;5044551;28;20214;-83
2021/04/04 09:22:32;;;;;;;10.85;5.38;;;8.10;99.90;;;;;;5046350;28;20214;-82
2021/04/04 09:25:03;;;;;;;13.02;5.50;;;8.10;99.90;;;;;;5046407;28;20231;-82
2021/04/04 09:27:35;;;;;;;10.00;6.17;;;7.90;99.90;;;;;;5045815;28;20274;-82
2021/04/04 09:30:03;;;;;;;6.18;5.15;;;8.20;99.90;;;;;;5044856;28;20486;-83
2021/04/04 09:32:35;;;;;;;7.78;5.88;;;9.10;99.90;;;;;;5046674;28;20361;-82
2021/04/04 09:35:03;;;;;;;7.07;4.73;;;8.70;99.90;;;;;;5045986;28;20227;-83
2021/04/04 09:37:30;;;;;;;10.07;5.13;;;8.20;99.90;;;;;;5049525;28;20409;-82
2021/04/04 09:39:58;;;;;;;8.68;4.78;;;8.50;99.90;;;;;;5053126;28;20214;-82
2021/04/04 09:42:30;;;;;;;14.55;5.38;;;8.60;99.90;;;;;;5050705;28;20207;-83
2021/04/04 09:45:12;;;;;;;7.57;5.13;;;8.70;99.90;;;;;;5048952;28;20634;-82
2021/04/04 09:47:38;;;;;;;8.75;5.32;;;8.00;99.90;;;;;;5048626;28;20481;-83
2021/04/04 09:50:17;;;;;;;7.13;4.90;;;8.80;99.90;;;;;;5046934;28;20679;-82
2021/04/04 09:52:43;;;;;;;7.80;4.90;;;;;;;;;;5047278;28;20202;-82
2021/04/04 09:55:13;;;;;;;8.77;5.72;;;8.70;99.90;;;;;;5048686;28;20482;-81
2021/04/04 09:57:42;;;;;;;8.20;5.17;;;8.70;99.90;;;;;;5048306;28;20203;-82
2021/04/04 10:00:20;;;;;;;9.38;4.20;;;8.60;99.90;;;;;;5045012;28;20454;-81
2021/04/04 10:02:49;;;;;;;10.63;5.43;;;8.70;99.90;;;;;;5048311;28;20562;-82
2021/04/04 10:05:31;;;;;;;16.90;5.80;;;8.80;99.90;;;;;;5047334;28;20474;-82
2021/04/04 10:08:09;;;;;;;13.40;6.17;;;8.60;99.90;;;;;;5048166;28;20803;-83
2021/04/04 10:10:36;;;;;;;9.55;5.65;;;8.80;99.90;;;;;;5045625;28;20347;-83
2021/04/04 10:13:04;;;;;;;10.87;5.53;;;8.80;99.90;;;;;;5046917;28;20214;-81
2021/04/04 10:15:39;;;;;;;12.50;6.33;;;9.00;99.90;;;;;;5048074;28;20792;-83
2021/04/04 10:18:06;;;;;;;12.30;4.90;;;8.70;99.90;;;;;;5049358;28;20446;-82
2021/04/04 10:20:35;;;;;;;14.07;6.63;;;9.10;99.90;;;;;;5048837;28;20450;-83
2021/04/04 10:23:03;;;;;;;14.30;6.30;;;8.80;99.90;;;;;;5046836;28;20459;-82
2021/04/04 10:25:29;;;;;;;10.50;5.53;;;8.80;99.90;;;;;;5045070;28;20497;-82
2021/04/04 10:28:00;;;;;;;10.77;7.10;;;8.70;99.90;;;;;;5045542;28;20409;-83
2021/04/04 10:30:29;;;;;;;12.30;5.50;;;9.40;99.90;;;;;;5052753;28;20529;-82
2021/04/04 10:33:00;;;;;;;8.60;5.90;;;9.50;99.90;;;;;;5047084;28;20450;-82
2021/04/04 10:35:31;;;;;;;11.30;5.10;;;9.90;99.90;;;;;;5047760;28;20477;-82
2021/04/04 10:38:07;;;;;;;9.10;5.77;;;10.30;99.90;;;;;;5051036;28;20528;-83
2021/04/04 10:40:43;;;;;;;10.25;5.63;;;10.30;99.90;;;;;;5049445;28;20440;-82
2021/04/04 10:43:11;;;;;;;10.37;5.73;;;11.20;99.90;;;;;;5059187;28;20215;-83
2021/04/04 10:46:03;;;;;;;6.97;5.23;;;10.40;99.90;;;;;;5058900;28;20454;-82
2021/04/04 10:48:31;;;;;;;8.60;5.20;;;10.50;99.90;;;;;;5059375;28;20517;-82
2021/04/04 10:50:58;;;;;;;14.73;6.30;;;10.30;99.90;;;;;;5059557;28;20521;-83
2021/04/04 10:53:25;;;;;;;8.97;5.20;;;10.70;99.90;;;;;;5058409;28;20844;-82
2021/04/04 10:55:51;;;;;;;8.43;5.23;;;10.50;99.90;;;;;;5057577;28;20481;-83
2021/04/04 10:58:21;;;;;;;5.83;5.00;;;10.10;99.90;;;;;;5056022;28;20446;-82
2021/04/04 11:00:48;;;;;;;7.07;5.00;;;10.60;99.90;;;;;;5049346;28;20461;-83
2021/04/04 11:03:15;;;;;;;8.77;4.70;;;10.10;99.90;;;;;;5046509;28;20481;-83
2021/04/04 11:05:42;;;;;;;10.20;4.60;;;10.50;99.90;;;;;;5047469;28;20470;-82
2021/04/04 11:08:08;;;;;;;11.00;5.17;;;10.40;99.90;;;;;;5046398;28;20450;-82
2021/04/04 11:10:35;;;;;;;8.40;4.37;;;10.60;99.90;;;;;;5046554;28;20482;-83
2021/04/04 11:13:02;;;;;;;8.30;5.30;;;10.50;99.90;;;;;;5046801;28;20520;-83
2021/04/04 11:15:31;;;;;;;7.70;4.67;;;11.10;99.90;;;;;;5046912;28;20470;-82
2021/04/04 11:17:59;;;;;;;15.03;5.90;;;10.10;99.90;;;;;;5047932;28;20425;-82
2021/04/04 11:20:26;;;;;;;9.97;4.60;;;9.80;99.90;;;;;;5046248;28;20453;-83
2021/04/04 11:22:53;;;;;;;10.20;5.87;;;10.10;99.90;;;;;;5047174;28;20454;-82
2021/04/04 11:25:20;;;;;;;10.67;4.50;;;9.80;99.90;;;;;;5043881;28;20470;-82
2021/04/04 11:27:47;;;;;;;8.30;4.87;;;9.70;99.90;;;;;;5045167;28;20450;-82
2021/04/04 11:30:15;;;;;;;7.93;4.20;;;10.00;99.90;;;;;;5044665;28;20466;-82
2021/04/04 11:32:43;;;;;;;7.80;4.73;;;10.00;99.90;;;;;;5043307;28;20895;-84
2021/04/04 11:35:12;;;;;;;8.20;4.40;;;10.60;99.90;;;;;;5045645;28;20470;-81
2021/04/04 11:37:40;;;;;;;8.93;4.60;;;10.60;99.90;;;;;;5047375;28;20421;-82
2021/04/04 11:40:16;;;;;;;6.87;4.60;;;11.30;99.90;;;;;;5047578;28;20449;-82
2021/04/04 11:42:44;;;;;;;12.47;5.43;;;11.50;99.90;;;;;;5051129;28;20410;-82
2021/04/04 11:45:11;;;;;;;9.70;5.10;;;11.30;99.90;;;;;;5053587;28;20459;-84
2021/04/04 11:47:38;;;;;;;8.80;5.50;;;;;;;;;;5055085;28;21002;-82
2021/04/04 11:50:24;;;;;;;6.17;4.73;;;11.10;99.90;;;;;;5052116;28;20483;-82
2021/04/04 11:52:51;;;;;;;9.60;5.33;;;10.90;99.90;;;;;;5047640;28;20446;-81
2021/04/04 11:55:20;;;;;;;8.03;4.80;;;10.50;99.90;;;;;;5049561;28;20437;-82
2021/04/04 11:57:48;;;;;;;9.30;4.97;;;10.10;99.90;;;;;;5053544;28;20413;-82
2021/04/04 12:00:28;;;;;;;5.10;4.60;;;10.80;99.90;;;;;;5046342;28;20459;-82
2021/04/04 12:03:01;;;;;;;8.17;5.40;;;10.50;99.90;;;;;;5046825;28;20442;-82
2021/04/04 12:05:34;;;;;;;6.30;4.10;;;10.50;99.90;;;;;;5053010;28;20452;-82
2021/04/04 12:08:00;;;;;;;11.40;4.27;;;10.40;99.90;;;;;;5049240;28;20438;-83
2021/04/04 12:10:28;;;;;;;8.30;4.13;;;10.30;99.90;;;;;;5049084;28;20478;-83
2021/04/04 12:12:55;;;;;;;5.90;4.10;;;10.90;99.90;;;;;;5046264;28;20449;-83
2021/04/04 12:15:23;;;;;;;8.80;4.53;;;11.00;99.90;;;;;;5046499;28;20470;-83
2021/04/04 12:17:50;;;;;;;7.27;4.23;;;10.70;99.90;;;;;;5046235;28;20435;-83
2021/04/04 12:20:20;;;;;;;11.87;4.30;;;11.00;99.90;;;;;;5045529;28;20453;-82
2021/04/04 12:22:47;;;;;;;8.20;3.63;;;11.10;99.90;;;;;;5047457;28;20442;-82
2021/04/04 12:25:15;;;;;;;6.07;4.50;;;10.80;99.90;;;;;;5047411;28;20437;-81
2021/04/04 12:27:43;;;;;;;7.03;5.17;;;11.20;99.90;;;;;;5046907;28;20302;-81
2021/04/04 12:30:22;;;;;;;6.63;3.90;;;10.20;99.90;;;;;;5045617;28;20481;-83
2021/04/04 12:32:59;;;;;;;7.43;4.07;;;10.90;99.90;;;;;;5045639;28;20418;-82
2021/04/04 12:35:25;;;;;;;7.60;4.63;;;11.40;99.90;;;;;;5047485;28;20447;-82
2021/04/04 12:37:53;;;;;;;12.90;5.17;;;11.00;99.90;;;;;;5047763;28;20510;-81
2021/04/04 12:40:19;;;;;;;5.70;3.57;;;10.30;99.90;;;;;;5054641;28;20453;-80
2021/04/04 12:42:45;;;;;;;11.10;4.77;;;10.50;99.90;;;;;;5054931;28;20424;-81
2021/04/04 12:45:13;;;;;;;8.90;4.23;;;9.50;99.90;;;;;;5054477;28;20493;-81
2021/04/04 12:47:42;;;;;;;9.37;4.07;;;10.70;99.90;;;;;;5055381;28;20436;-81
2021/04/04 12:50:10;;;;;;;9.97;4.90;;;9.20;99.90;;;;;;5055947;28;20482;-81
2021/04/04 12:52:41;;;;;;;8.07;4.80;;;11.20;99.90;;;;;;5056025;28;20438;-81
2021/04/04 12:55:27;;;;;;;10.57;4.70;;;11.70;99.90;;;;;;5071250;23;20494;-83
2021/04/04 12:57:58;;;;;;;13.73;7.20;;;11.70;99.90;;;;;;5041533;28;20426;-81
2021/04/04 13:00:26;;;;;;;9.10;4.63;;;11.20;99.90;;;;;;5040107;28;20503;-83
2021/04/04 13:03:05;;;;;;;8.23;4.40;;;11.50;99.90;;;;;;5039829;28;20924;-83
2021/04/04 13:05:40;;;;;;;7.43;4.50;;;11.70;99.90;;;;;;5040058;28;20733;-83
2021/04/04 13:08:13;;;;;;;5.77;3.70;;;11.80;99.90;;;;;;5039643;28;20430;-82
2021/04/04 13:10:42;;;;;;;10.40;4.43;;;11.70;99.90;;;;;;5039308;28;20466;-82
2021/04/04 13:13:14;;;;;;;8.50;4.30;;;11.80;99.90;;;;;;5039985;28;20821;-83